createdAt,value
2019-02-24T00:01:10.905Z,100972.11
2019-02-24T00:03:44.546Z,100985.66
2019-02-24T00:06:16.475Z,100985.16
2019-02-24T00:08:47.791Z,100973.61
2019-02-24T00:11:21.327Z,100966.78
2019-02-24T00:13:55.129Z,100970.80
2019-02-24T00:16:29.038Z,100975.49
2019-02-24T00:19:03.823Z,100972.30
2019-02-24T00:21:35.373Z,100977.59
2019-02-24T00:24:07.688Z,100970.03
2019-02-24T00:26:38.966Z,100970.41
2019-02-24T00:29:12.640Z,100975.25
2019-02-24T00:31:46.448Z,100992.98
2019-02-24T00:34:19.339Z,100995.06
2019-02-24T00:36:52.232Z,100987.44
2019-02-24T00:39:27.003Z,100985.94
2019-02-24T00:42:00.482Z,100979.33
2019-02-24T00:44:33.019Z,100983.59
2019-02-24T00:47:07.029Z,100980.52
2019-02-24T00:49:38.698Z,100985.20
2019-02-24T00:52:11.700Z,100990.80
2019-02-24T00:54:45.593Z,100985.47
2019-02-24T00:57:16.874Z,100985.47
2019-02-24T00:59:48.461Z,100981.56
2019-02-24T01:02:20.903Z,100985.80
2019-02-24T01:04:54.404Z,100981.00
2019-02-24T01:07:28.411Z,100981.77
2019-02-24T01:10:02.061Z,100978.20
2019-02-24T01:12:35.887Z,100975.59
2019-02-24T01:15:08.965Z,100978.77
2019-02-24T01:17:40.823Z,100982.57
2019-02-24T01:20:14.664Z,100985.75
2019-02-24T01:22:49.956Z,100988.71
2019-02-24T01:25:23.457Z,100989.55
2019-02-24T01:27:57.485Z,100986.59
2019-02-24T01:30:31.459Z,100985.30
2019-02-24T01:33:04.176Z,100974.48
2019-02-24T01:35:38.271Z,100975.67
2019-02-24T01:38:12.092Z,100971.69
2019-02-24T01:40:45.911Z,100981.00
2019-02-24T01:43:19.810Z,100979.34
2019-02-24T01:45:51.070Z,100968.92
2019-02-24T01:48:24.558Z,100970.03
2019-02-24T01:50:58.469Z,100965.20
2019-02-24T01:53:32.574Z,100973.41
2019-02-24T01:56:06.279Z,100974.22
2019-02-24T01:58:38.242Z,100976.36
2019-02-24T02:01:10.253Z,100977.39
2019-02-24T02:03:41.619Z,100977.23
2019-02-24T02:06:12.880Z,100971.91
2019-02-24T02:08:46.986Z,100964.94
2019-02-24T02:11:20.826Z,100966.70
2019-02-24T02:13:52.701Z,100973.14
2019-02-24T02:16:25.560Z,100962.70
2019-02-24T02:18:57.539Z,100962.63
2019-02-24T02:21:30.630Z,100966.16
2019-02-24T02:24:04.235Z,100963.28
2019-02-24T02:26:38.232Z,100962.25
2019-02-24T02:29:11.207Z,100967.27
2019-02-24T02:31:45.117Z,100964.94
2019-02-24T02:34:18.946Z,100964.66
2019-02-24T02:36:50.371Z,100961.33
2019-02-24T02:39:21.662Z,100954.35
2019-02-24T02:41:54.526Z,100954.08
2019-02-24T02:44:28.561Z,100958.91
2019-02-24T02:47:02.426Z,100952.13
2019-02-24T02:49:37.354Z,100960.13
2019-02-24T02:52:09.550Z,100949.98
2019-02-24T02:54:44.112Z,100950.36
2019-02-24T02:57:18.165Z,100950.74
2019-02-24T02:59:51.149Z,100955.00
2019-02-24T03:02:25.051Z,100948.14
2019-02-24T03:04:57.841Z,100955.77
2019-02-24T03:07:38.769Z,100945.72
2019-02-24T03:10:11.603Z,100952.36
2019-02-24T03:12:43.553Z,100952.63
2019-02-24T03:15:15.539Z,100965.95
2019-02-24T03:17:50.051Z,100965.66
2019-02-24T03:20:22.226Z,100953.39
2019-02-24T03:22:53.618Z,100935.78
2019-02-24T03:25:27.066Z,100928.81
2019-02-24T03:28:01.013Z,100919.34
2019-02-24T03:30:34.923Z,100906.66
2019-02-24T03:33:10.510Z,100906.66
2019-02-24T03:35:42.739Z,100906.47
2019-02-24T03:38:13.986Z,100905.28
2019-02-24T03:40:47.585Z,100913.74
2019-02-24T03:43:21.528Z,100939.33
2019-02-24T03:45:53.634Z,100911.93
2019-02-24T03:48:26.468Z,100943.34
2019-02-24T03:50:58.104Z,100932.19
2019-02-24T03:53:31.008Z,100923.27
2019-02-24T03:56:07.443Z,100925.77
2019-02-24T03:58:38.695Z,100920.83
2019-02-24T04:01:09.953Z,100917.03
2019-02-24T04:03:43.795Z,100920.48
2019-02-24T04:06:17.598Z,100917.88
2019-02-24T04:08:48.872Z,100913.97
2019-02-24T04:11:20.329Z,100908.64
2019-02-24T04:13:52.385Z,100904.09
2019-02-24T04:16:24.334Z,100901.83
2019-02-24T04:18:59.541Z,100898.50
2019-02-24T04:21:31.972Z,100892.91
2019-02-24T04:24:03.272Z,100887.62
2019-02-24T04:26:34.935Z,100888.34
2019-02-24T04:29:06.909Z,100883.06
2019-02-24T04:31:40.625Z,100892.83
2019-02-24T04:34:16.351Z,100894.20
2019-02-24T04:36:48.624Z,100896.35
2019-02-24T04:39:19.868Z,100899.98
2019-02-24T04:41:53.305Z,100892.28
2019-02-24T04:44:27.263Z,100881.41
2019-02-24T04:46:59.587Z,100869.30
2019-02-24T04:49:31.975Z,100878.80
2019-02-24T04:52:04.824Z,100877.12
2019-02-24T04:54:36.785Z,100866.89
2019-02-24T04:57:10.647Z,100859.92
2019-02-24T04:59:41.921Z,100860.48
2019-02-24T05:02:15.480Z,100867.73
2019-02-24T05:04:48.635Z,100862.80
2019-02-24T05:07:20.730Z,100861.49
2019-02-24T05:09:52.181Z,100858.50
2019-02-24T05:12:25.069Z,100861.30
2019-02-24T05:14:57.000Z,100872.67
2019-02-24T05:17:28.261Z,100875.45
2019-02-24T05:20:00.927Z,100877.52
2019-02-24T05:22:32.860Z,100868.59
2019-02-24T05:25:05.551Z,100876.33
2019-02-24T05:27:36.918Z,100871.94
2019-02-24T05:30:10.519Z,100875.08
2019-02-24T05:32:42.504Z,100877.69
2019-02-24T05:35:14.345Z,100887.16
2019-02-24T05:37:48.192Z,100881.76
2019-02-24T05:40:22.071Z,100865.25
2019-02-24T05:42:55.063Z,100859.39
2019-02-24T05:45:27.061Z,100862.53
2019-02-24T05:47:58.907Z,100867.66
2019-02-24T05:50:31.853Z,100866.63
2019-02-24T05:53:07.492Z,100857.12
2019-02-24T05:55:39.594Z,100848.88
2019-02-24T05:58:13.541Z,100834.15
2019-02-24T06:00:45.348Z,100834.06
2019-02-24T06:03:18.241Z,100830.50
2019-02-24T06:05:49.486Z,100834.13
2019-02-24T06:08:23.178Z,100835.04
2019-02-24T06:10:57.037Z,100833.16
2019-02-24T06:13:30.784Z,100829.39
2019-02-24T06:16:03.438Z,100825.28
2019-02-24T06:18:34.879Z,100823.31
2019-02-24T06:21:07.886Z,100818.36
2019-02-24T06:23:40.467Z,100818.54
2019-02-24T06:26:11.726Z,100824.10
2019-02-24T06:28:45.211Z,100820.05
2019-02-24T06:31:19.371Z,100805.67
2019-02-24T06:33:52.235Z,100814.06
2019-02-24T06:36:25.672Z,100815.09
2019-02-24T06:38:58.695Z,100813.17
2019-02-24T06:41:32.624Z,100798.73
2019-02-24T06:44:06.128Z,100788.59
2019-02-24T06:46:39.988Z,100787.13
2019-02-24T06:49:13.712Z,100811.25
2019-02-24T06:51:46.952Z,100827.75
2019-02-24T06:54:20.477Z,100816.76
2019-02-24T06:56:51.983Z,100832.34
2019-02-24T06:59:24.117Z,100831.38
2019-02-24T07:01:57.711Z,100824.63
2019-02-24T07:04:29.936Z,100801.31
2019-02-24T07:07:03.952Z,100782.86
2019-02-24T07:09:37.851Z,100791.99
2019-02-24T07:12:09.675Z,100803.08
2019-02-24T07:14:42.788Z,100820.34
2019-02-24T07:17:16.509Z,100844.08
2019-02-24T07:19:49.014Z,100851.41
2019-02-24T07:22:21.439Z,100824.44
2019-02-24T07:24:55.321Z,100814.46
2019-02-24T07:27:29.372Z,100808.78
2019-02-24T07:30:04.309Z,100821.29
2019-02-24T07:32:37.074Z,100814.06
2019-02-24T07:35:12.024Z,100819.07
2019-02-24T07:37:45.884Z,100836.45
2019-02-24T07:40:17.692Z,100849.78
2019-02-24T07:42:49.257Z,100841.34
2019-02-24T07:45:22.700Z,100847.30
2019-02-24T07:47:54.048Z,100850.55
2019-02-24T07:50:27.273Z,100857.94
2019-02-24T07:53:01.311Z,100858.88
2019-02-24T07:55:35.350Z,100857.20
2019-02-24T07:58:10.733Z,100865.44
2019-02-24T08:00:44.616Z,100862.56
2019-02-24T08:03:19.785Z,100868.98
2019-02-24T08:05:52.798Z,100875.27
2019-02-24T08:08:24.703Z,100863.25
2019-02-24T08:10:58.615Z,100861.56
2019-02-24T08:13:31.011Z,100850.16
2019-02-24T08:16:03.300Z,100836.19
2019-02-24T08:18:37.298Z,100839.85
2019-02-24T08:21:10.410Z,100853.87
2019-02-24T08:23:44.392Z,100840.55
2019-02-24T08:26:18.245Z,100851.08
2019-02-24T08:28:49.590Z,100854.87
2019-02-24T08:31:21.838Z,100853.23
2019-02-24T08:33:53.594Z,100845.34
2019-02-24T08:36:24.957Z,100847.98
2019-02-24T08:38:58.698Z,100853.27
2019-02-24T08:41:32.620Z,100855.64
2019-02-24T08:44:04.598Z,100852.94
2019-02-24T08:46:36.773Z,100854.47
2019-02-24T08:49:09.366Z,100857.95
2019-02-24T08:51:43.277Z,100858.02
2019-02-24T08:54:17.183Z,100841.55
2019-02-24T08:56:49.236Z,100833.55
2019-02-24T08:59:20.984Z,100823.36
2019-02-24T09:01:53.639Z,100835.01
2019-02-24T09:04:25.109Z,100841.73
2019-02-24T09:06:58.591Z,100846.86
2019-02-24T09:09:30.579Z,100845.67
2019-02-24T09:12:04.506Z,100863.24
2019-02-24T09:14:37.605Z,100857.36
2019-02-24T09:17:11.241Z,100862.84
2019-02-24T09:19:46.751Z,100867.89
2019-02-24T09:22:18.314Z,100858.79
2019-02-24T09:24:49.661Z,100860.25
2019-02-24T09:27:20.903Z,100862.16
2019-02-24T09:29:52.835Z,100866.17
2019-02-24T09:32:26.652Z,100872.04
2019-02-24T09:35:02.140Z,100885.14
2019-02-24T09:37:33.864Z,100885.31
2019-02-24T09:40:07.444Z,100875.72
2019-02-24T09:42:41.362Z,100880.71
2019-02-24T09:45:13.989Z,100880.44
2019-02-24T09:47:47.062Z,100884.74
2019-02-24T09:50:20.116Z,100881.06
2019-02-24T09:52:51.957Z,100881.52
2019-02-24T09:55:25.796Z,100879.78
2019-02-24T09:57:57.313Z,100875.88
2019-02-24T10:00:28.604Z,100880.75
2019-02-24T10:03:03.197Z,100880.31
2019-02-24T10:05:38.982Z,100877.27
2019-02-24T10:08:11.315Z,100884.03
2019-02-24T10:10:43.296Z,100882.48
2019-02-24T10:13:16.835Z,100890.30
2019-02-24T10:15:49.254Z,100880.19
2019-02-24T10:18:21.425Z,100879.80
2019-02-24T10:20:53.243Z,100881.67
2019-02-24T10:23:24.529Z,100877.63
2019-02-24T10:25:55.943Z,100879.50
2019-02-24T10:28:28.482Z,100887.25
2019-02-24T10:31:01.568Z,100879.44
2019-02-24T10:33:34.326Z,100883.00
2019-02-24T10:36:05.884Z,100883.39
2019-02-24T10:38:37.561Z,100876.69
2019-02-24T10:41:09.520Z,100870.35
2019-02-24T10:43:40.787Z,100862.55
2019-02-24T10:46:12.120Z,100856.31
2019-02-24T10:48:43.440Z,100861.81
2019-02-24T10:51:14.785Z,100860.48
2019-02-24T10:53:46.464Z,100868.06
2019-02-24T10:56:18.487Z,100863.72
2019-02-24T10:58:49.919Z,100857.77
2019-02-24T11:01:29.214Z,100873.11
2019-02-24T11:03:54.350Z,100880.99
2019-02-24T11:06:26.798Z,100874.61
2019-02-24T11:09:03.685Z,100868.59
2019-02-24T11:11:36.347Z,100871.45
2019-02-24T11:14:08.062Z,100877.25
2019-02-24T11:16:40.062Z,100871.56
2019-02-24T11:19:12.377Z,100855.37
2019-02-24T11:21:43.969Z,100794.28
2019-02-24T11:24:15.234Z,100855.74
2019-02-24T11:26:47.081Z,100850.16
2019-02-24T11:29:18.700Z,100845.59
2019-02-24T11:31:51.114Z,100829.75
2019-02-24T11:34:23.079Z,100833.71
2019-02-24T11:36:56.624Z,100835.52
2019-02-24T11:39:28.162Z,100831.73
2019-02-24T11:42:00.172Z,100844.16
2019-02-24T11:44:31.466Z,100840.70
2019-02-24T11:47:03.071Z,100836.67
2019-02-24T11:49:34.517Z,100844.95
2019-02-24T11:52:06.006Z,100845.62
2019-02-24T11:54:37.315Z,100844.30
2019-02-24T11:57:08.656Z,100845.00
2019-02-24T11:59:40.052Z,100854.98
2019-02-24T12:02:12.000Z,100850.67
2019-02-24T12:04:43.286Z,100854.55
2019-02-24T12:07:15.011Z,100848.47
2019-02-24T12:09:46.936Z,100856.71
2019-02-24T12:12:18.182Z,100850.53
2019-02-24T12:14:49.970Z,100849.14
2019-02-24T12:17:21.290Z,100845.02
2019-02-24T12:19:53.030Z,100847.54
2019-02-24T12:22:24.385Z,100845.10
2019-02-24T12:24:55.999Z,100838.19
2019-02-24T12:27:28.049Z,100839.67
2019-02-24T12:30:00.412Z,100837.31
2019-02-24T12:32:31.656Z,100829.52
2019-02-24T12:35:03.262Z,100825.84
2019-02-24T12:37:35.204Z,100820.56
2019-02-24T12:40:08.011Z,100813.73
2019-02-24T12:42:41.027Z,100806.70
2019-02-24T12:45:12.380Z,100808.42
2019-02-24T12:47:44.043Z,100798.75
2019-02-24T12:50:16.157Z,100798.95
2019-02-24T12:52:47.764Z,100787.44
2019-02-24T12:55:19.031Z,100792.43
2019-02-24T12:57:51.042Z,100797.88
2019-02-24T13:00:22.411Z,100802.16
2019-02-24T13:02:54.030Z,100795.68
2019-02-24T13:05:29.315Z,100792.34
2019-02-24T13:08:01.340Z,100790.88
2019-02-24T13:10:32.992Z,100797.61
2019-02-24T13:13:04.266Z,100790.34
2019-02-24T13:15:36.081Z,100785.63
2019-02-24T13:18:08.191Z,100779.62
2019-02-24T13:20:39.993Z,100783.34
2019-02-24T13:23:11.518Z,100780.88
2019-02-24T13:25:42.998Z,100778.32
2019-02-24T13:28:14.630Z,100771.22
2019-02-24T13:30:46.004Z,100770.56
2019-02-24T13:33:17.244Z,100751.87
2019-02-24T13:35:49.152Z,100751.87
2019-02-24T13:38:20.412Z,100773.77
2019-02-24T13:40:52.082Z,100767.50
2019-02-24T13:43:23.951Z,100757.27
2019-02-24T13:45:55.667Z,100754.59
2019-02-24T13:48:27.057Z,100754.07
2019-02-24T13:50:59.244Z,100754.59
2019-02-24T13:53:30.991Z,100751.28
2019-02-24T13:56:04.502Z,100766.38
2019-02-24T13:58:36.389Z,100759.63
2019-02-24T14:01:08.103Z,100759.30
2019-02-24T14:03:40.224Z,100758.33
2019-02-24T14:06:12.219Z,100750.41
2019-02-24T14:08:43.782Z,100746.44
2019-02-24T14:11:15.136Z,100738.02
2019-02-24T14:13:47.112Z,100744.17
2019-02-24T14:16:20.884Z,100737.22
2019-02-24T14:18:52.602Z,100733.38
2019-02-24T14:21:24.332Z,100729.88
2019-02-24T14:23:56.034Z,100744.09
2019-02-24T14:26:27.450Z,100732.70
2019-02-24T14:28:59.036Z,100736.00
2019-02-24T14:31:30.661Z,100736.85
2019-02-24T14:34:02.456Z,100744.81
2019-02-24T14:36:34.790Z,100738.69
2019-02-24T14:39:10.063Z,100735.23
2019-02-24T14:41:42.170Z,100743.98
2019-02-24T14:44:14.198Z,100744.81
2019-02-24T14:46:46.023Z,100739.19
2019-02-24T14:49:17.625Z,100744.14
2019-02-24T14:51:50.087Z,100743.48
2019-02-24T14:54:21.497Z,100744.11
2019-02-24T14:56:53.043Z,100751.88
2019-02-24T14:59:24.498Z,100759.65
2019-02-24T15:01:56.135Z,100749.05
2019-02-24T15:04:28.337Z,100745.02
2019-02-24T15:07:01.388Z,100738.03
2019-02-24T15:09:33.145Z,100735.28
2019-02-24T15:12:05.061Z,100744.88
2019-02-24T15:14:37.155Z,100744.18
2019-02-24T15:17:08.914Z,100753.78
2019-02-24T15:19:40.161Z,100755.11
2019-02-24T15:22:12.060Z,100748.19
2019-02-24T15:24:44.413Z,100753.83
2019-02-24T15:27:17.845Z,100756.82
2019-02-24T15:29:49.095Z,100755.36
2019-02-24T15:32:20.450Z,100762.45
2019-02-24T15:34:52.085Z,100752.88
2019-02-24T15:37:24.184Z,100756.54
2019-02-24T15:39:56.268Z,100753.89
2019-02-24T15:42:28.177Z,100753.34
2019-02-24T15:45:00.226Z,100750.34
2019-02-24T15:47:31.531Z,100764.02
2019-02-24T15:50:03.352Z,100762.03
2019-02-24T15:52:35.707Z,100766.47
2019-02-24T15:55:09.093Z,100762.29
2019-02-24T15:57:41.062Z,100765.86
2019-02-24T16:00:14.664Z,100762.37
2019-02-24T16:02:46.370Z,100776.42
2019-02-24T16:05:18.601Z,100768.80
2019-02-24T16:07:50.003Z,100758.89
2019-02-24T16:10:22.005Z,100759.20
2019-02-24T16:12:53.461Z,100756.55
2019-02-24T16:15:24.867Z,100766.42
2019-02-24T16:17:56.119Z,100766.89
2019-02-24T16:20:28.083Z,100761.91
2019-02-24T16:22:59.995Z,100765.87
2019-02-24T16:25:31.320Z,100772.48
2019-02-24T16:28:03.005Z,100778.95
2019-02-24T16:30:34.526Z,100787.50
2019-02-24T16:33:10.516Z,100781.89
2019-02-24T16:35:39.188Z,100789.30
2019-02-24T16:38:10.973Z,100780.52
2019-02-24T16:40:42.231Z,100780.52
2019-02-24T16:43:15.102Z,100786.48
2019-02-24T16:45:47.228Z,100779.55
2019-02-24T16:48:20.172Z,100786.48
2019-02-24T16:50:52.104Z,100794.39
2019-02-24T16:53:24.180Z,100789.76
2019-02-24T16:55:56.108Z,100791.08
2019-02-24T16:58:28.145Z,100798.00
2019-02-24T17:01:00.176Z,100794.52
2019-02-24T17:03:31.560Z,100787.12
2019-02-24T17:06:03.089Z,100799.14
2019-02-24T17:08:34.412Z,100788.22
2019-02-24T17:11:07.582Z,100790.06
2019-02-24T17:13:39.144Z,100792.35
2019-02-24T17:16:11.038Z,100791.63
2019-02-24T17:18:43.247Z,100790.61
2019-02-24T17:21:14.586Z,100794.25
2019-02-24T17:23:49.819Z,100794.56
2019-02-24T17:26:19.353Z,100795.52
2019-02-24T17:28:51.197Z,100798.65
2019-02-24T17:31:28.360Z,100791.55
2019-02-24T17:33:58.078Z,100797.80
2019-02-24T17:36:31.896Z,100800.73
2019-02-24T17:39:03.216Z,100812.12
2019-02-24T17:41:35.215Z,100808.30
2019-02-24T17:44:07.026Z,100807.50
2019-02-24T17:46:39.947Z,100810.95
2019-02-24T17:49:11.238Z,100809.98
2019-02-24T17:51:43.076Z,100802.22
2019-02-24T17:54:15.113Z,100800.38
2019-02-24T17:56:47.043Z,100798.39
2019-02-24T17:59:19.427Z,100797.42
2019-02-24T18:01:51.061Z,100800.90
2019-02-24T18:04:23.054Z,100796.72
2019-02-24T18:06:55.117Z,100794.71
2019-02-24T18:09:27.144Z,100798.02
2019-02-24T18:11:59.040Z,100798.98
2019-02-24T18:14:31.118Z,100806.61
2019-02-24T18:17:03.082Z,100807.80
2019-02-24T18:19:35.157Z,100802.70
2019-02-24T18:22:07.218Z,100800.73
2019-02-24T18:24:39.097Z,100797.13
2019-02-24T18:27:12.594Z,100791.20
2019-02-24T18:29:44.214Z,100799.12
2019-02-24T18:32:16.189Z,100799.78
2019-02-24T18:34:48.134Z,100804.10
2019-02-24T18:37:20.176Z,100803.75
2019-02-24T18:39:52.067Z,100799.78
2019-02-24T18:42:24.092Z,100806.25
2019-02-24T18:44:57.808Z,100798.95
2019-02-24T18:47:29.068Z,100807.70
2019-02-24T18:50:01.516Z,100809.81
2019-02-24T18:52:32.985Z,100810.95
2019-02-24T18:55:06.762Z,100804.34
2019-02-24T18:57:38.221Z,100814.91
2019-02-24T19:00:12.797Z,100820.19
2019-02-24T19:02:44.374Z,100812.97
2019-02-24T19:05:15.999Z,100811.65
2019-02-24T19:07:47.572Z,100812.62
2019-02-24T19:10:21.108Z,100811.34
2019-02-24T19:12:52.134Z,100808.19
2019-02-24T19:15:24.417Z,100809.68
2019-02-24T19:17:56.130Z,100809.03
2019-02-24T19:20:28.130Z,100819.59
2019-02-24T19:23:00.175Z,100819.59
2019-02-24T19:25:31.530Z,100815.63
2019-02-24T19:28:03.090Z,100810.83
2019-02-24T19:30:35.132Z,100819.29
2019-02-24T19:33:09.127Z,100824.57
2019-02-24T19:35:41.414Z,100816.35
2019-02-24T19:38:13.093Z,100809.80
2019-02-24T19:40:45.190Z,100811.13
2019-02-24T19:43:17.074Z,100805.84
2019-02-24T19:45:48.451Z,100805.84
2019-02-24T19:48:20.150Z,100809.45
2019-02-24T19:50:52.059Z,100811.73
2019-02-24T19:53:24.111Z,100809.80
2019-02-24T19:55:56.077Z,100805.84
2019-02-24T19:58:28.165Z,100804.17
2019-02-24T20:00:59.558Z,100798.42
2019-02-24T20:03:31.070Z,100796.97
2019-02-24T20:06:03.106Z,100807.00
2019-02-24T20:08:35.058Z,100802.68
2019-02-24T20:11:07.377Z,100795.59
2019-02-24T20:13:39.082Z,100801.72
2019-02-24T20:16:11.049Z,100790.84
2019-02-24T20:18:43.193Z,100788.34
2019-02-24T20:21:15.060Z,100783.06
2019-02-24T20:23:47.081Z,100794.64
2019-02-24T20:26:19.201Z,100788.20
2019-02-24T20:28:50.502Z,100792.66
2019-02-24T20:31:22.009Z,100797.10
2019-02-24T20:33:53.366Z,100796.91
2019-02-24T20:36:24.779Z,100795.59
2019-02-24T20:38:56.094Z,100792.82
2019-02-24T20:41:28.192Z,100783.89
2019-02-24T20:44:00.071Z,100793.00
2019-02-24T20:46:31.378Z,100809.47
2019-02-24T20:49:03.190Z,100809.80
2019-02-24T20:51:35.116Z,100819.05
2019-02-24T20:54:08.802Z,100814.92
2019-02-24T20:56:40.106Z,100820.03
2019-02-24T20:59:12.123Z,100820.44
2019-02-24T21:01:45.108Z,100815.28
2019-02-24T21:04:17.149Z,100810.79
2019-02-24T21:06:49.066Z,100813.11
2019-02-24T21:09:21.004Z,100824.53
2019-02-24T21:11:52.359Z,100825.20
2019-02-24T21:14:24.056Z,100811.86
2019-02-24T21:16:55.305Z,100800.64
2019-02-24T21:19:27.006Z,100791.58
2019-02-24T21:21:58.437Z,100796.42
2019-02-24T21:24:29.991Z,100801.06
2019-02-24T21:27:01.257Z,100797.92
2019-02-24T21:29:34.251Z,100804.48
2019-02-24T21:32:05.581Z,100799.37
2019-02-24T21:34:37.106Z,100786.48
2019-02-24T21:37:08.501Z,100788.10
2019-02-24T21:39:40.002Z,100782.20
2019-02-24T21:42:11.259Z,100778.38
2019-02-24T21:44:43.053Z,100775.72
2019-02-24T21:47:15.040Z,100782.80
2019-02-24T21:49:47.074Z,100774.58
2019-02-24T21:52:19.060Z,100783.84
2019-02-24T21:54:50.312Z,100788.76
2019-02-24T21:57:22.011Z,100787.44
2019-02-24T21:59:55.756Z,100788.98
2019-02-24T22:02:27.034Z,100794.39
2019-02-24T22:04:58.301Z,100786.09
2019-02-24T22:07:29.986Z,100783.06
2019-02-24T22:10:01.268Z,100786.70
2019-02-24T22:12:33.573Z,100784.73
2019-02-24T22:15:05.626Z,100786.03
2019-02-24T22:17:36.989Z,100786.17
2019-02-24T22:20:09.421Z,100784.66
2019-02-24T22:22:41.079Z,100782.69
2019-02-24T22:25:13.670Z,100779.63
2019-02-24T22:27:45.201Z,100776.14
2019-02-24T22:30:17.331Z,100777.27
2019-02-24T22:32:49.067Z,100771.81
2019-02-24T22:35:20.593Z,100767.87
2019-02-24T22:37:52.183Z,100773.03
2019-02-24T22:40:23.567Z,100774.83
2019-02-24T22:42:55.066Z,100771.17
2019-02-24T22:45:27.085Z,100767.55
2019-02-24T22:47:59.096Z,100777.11
2019-02-24T22:50:31.015Z,100763.23
2019-02-24T22:53:02.342Z,100745.72
2019-02-24T22:55:33.984Z,100745.11
2019-02-24T22:58:05.265Z,100748.77
2019-02-24T23:00:57.568Z,100752.19
2019-02-24T23:03:40.281Z,100765.34
2019-02-24T23:06:12.018Z,100763.70
2019-02-24T23:08:43.339Z,100766.66
2019-02-24T23:11:15.177Z,100760.89
2019-02-24T23:13:47.108Z,100747.34
2019-02-24T23:16:20.615Z,100742.41
2019-02-24T23:18:52.079Z,100753.99
2019-02-24T23:21:24.083Z,100759.92
2019-02-24T23:23:56.431Z,100764.86
2019-02-24T23:26:27.965Z,100774.27
2019-02-24T23:28:59.239Z,100775.91
2019-02-24T23:31:31.020Z,100782.51
2019-02-24T23:34:03.090Z,100774.59
2019-02-24T23:36:35.033Z,100771.69
2019-02-24T23:39:10.408Z,100763.47
2019-02-24T23:41:42.043Z,100758.86
2019-02-24T23:44:13.373Z,100764.02
2019-02-24T23:46:45.083Z,100766.30
2019-02-24T23:49:18.726Z,100764.80
2019-02-24T23:51:49.989Z,100760.17
2019-02-24T23:54:21.271Z,100763.97
2019-02-24T23:56:52.991Z,100762.64
2019-02-24T23:59:24.254Z,100759.38
